sensor_id;sensor_type;location;lat;lon;timestamp;P1;durP1;ratioP1;P2;durP2;ratioP2
47912;SDS011;33676;51.006;17.180;2023-05-07T00:01:31;7.00;;;6.30;;
47912;SDS011;33676;51.006;17.180;2023-05-07T00:03:59;6.40;;;5.80;;
47912;SDS011;33676;51.006;17.180;2023-05-07T00:06:29;7.30;;;5.70;;
47912;SDS011;33676;51.006;17.180;2023-05-07T00:08:58;7.50;;;6.50;;
47912;SDS011;33676;51.006;17.180;2023-05-07T00:11:29;6.60;;;6.00;;
47912;SDS011;33676;51.006;17.180;2023-05-07T00:13:57;5.50;;;5.00;;
47912;SDS011;33676;51.006;17.180;2023-05-07T00:16:25;5.30;;;4.90;;
47912;SDS011;33676;51.006;17.180;2023-05-07T00:18:54;5.50;;;5.10;;
47912;SDS011;33676;51.006;17.180;2023-05-07T00:21:22;5.50;;;5.10;;
47912;SDS011;33676;51.006;17.180;2023-05-07T00:23:54;6.80;;;6.20;;
47912;SDS011;33676;51.006;17.180;2023-05-07T00:26:23;5.80;;;5.40;;
47912;SDS011;33676;51.006;17.180;2023-05-07T00:28:51;8.30;;;7.40;;
47912;SDS011;33676;51.006;17.180;2023-05-07T00:31:43;5.40;;;5.00;;
47912;SDS011;33676;51.006;17.180;2023-05-07T00:34:11;6.80;;;6.10;;
47912;SDS011;33676;51.006;17.180;2023-05-07T00:36:40;7.20;;;5.50;;
47912;SDS011;33676;51.006;17.180;2023-05-07T00:39:08;6.30;;;5.70;;
47912;SDS011;33676;51.006;17.180;2023-05-07T00:41:43;6.00;;;5.50;;
47912;SDS011;33676;51.006;17.180;2023-05-07T00:44:11;6.70;;;6.00;;
47912;SDS011;33676;51.006;17.180;2023-05-07T00:46:40;7.10;;;6.40;;
47912;SDS011;33676;51.006;17.180;2023-05-07T00:49:09;5.90;;;5.40;;
47912;SDS011;33676;51.006;17.180;2023-05-07T00:51:38;6.00;;;5.30;;
47912;SDS011;33676;51.006;17.180;2023-05-07T00:54:06;5.80;;;5.40;;
47912;SDS011;33676;51.006;17.180;2023-05-07T00:56:38;6.10;;;5.60;;
47912;SDS011;33676;51.006;17.180;2023-05-07T00:59:07;5.60;;;5.20;;
47912;SDS011;33676;51.006;17.180;2023-05-07T01:01:36;7.40;;;6.50;;
47912;SDS011;33676;51.006;17.180;2023-05-07T01:04:05;5.20;;;4.70;;
47912;SDS011;33676;51.006;17.180;2023-05-07T01:06:34;7.20;;;6.50;;
47912;SDS011;33676;51.006;17.180;2023-05-07T01:09:09;5.60;;;4.30;;
47912;SDS011;33676;51.006;17.180;2023-05-07T01:11:37;6.00;;;5.50;;
47912;SDS011;33676;51.006;17.180;2023-05-07T01:14:06;6.40;;;5.80;;
47912;SDS011;33676;51.006;17.180;2023-05-07T01:16:36;4.90;;;4.50;;
47912;SDS011;33676;51.006;17.180;2023-05-07T01:19:05;6.00;;;5.00;;
47912;SDS011;33676;51.006;17.180;2023-05-07T01:21:34;5.20;;;4.80;;
47912;SDS011;33676;51.006;17.180;2023-05-07T01:24:31;4.60;;;4.30;;
47912;SDS011;33676;51.006;17.180;2023-05-07T01:26:59;5.50;;;5.00;;
47912;SDS011;33676;51.006;17.180;2023-05-07T01:29:52;5.00;;;4.60;;
47912;SDS011;33676;51.006;17.180;2023-05-07T01:32:49;6.50;;;5.90;;
47912;SDS011;33676;51.006;17.180;2023-05-07T01:36:09;5.20;;;4.70;;
47912;SDS011;33676;51.006;17.180;2023-05-07T01:38:40;5.50;;;5.00;;
47912;SDS011;33676;51.006;17.180;2023-05-07T01:41:10;7.10;;;6.50;;
47912;SDS011;33676;51.006;17.180;2023-05-07T01:43:40;7.40;;;6.70;;
47912;SDS011;33676;51.006;17.180;2023-05-07T01:46:09;6.40;;;5.60;;
47912;SDS011;33676;51.006;17.180;2023-05-07T01:48:39;7.00;;;6.40;;
47912;SDS011;33676;51.006;17.180;2023-05-07T01:51:08;7.70;;;7.10;;
47912;SDS011;33676;51.006;17.180;2023-05-07T01:53:37;7.90;;;6.80;;
47912;SDS011;33676;51.006;17.180;2023-05-07T01:56:12;6.70;;;6.00;;
47912;SDS011;33676;51.006;17.180;2023-05-07T01:58:40;10.10;;;6.30;;
47912;SDS011;33676;51.006;17.180;2023-05-07T02:01:08;6.40;;;5.80;;
47912;SDS011;33676;51.006;17.180;2023-05-07T02:03:38;6.00;;;5.50;;
47912;SDS011;33676;51.006;17.180;2023-05-07T02:06:09;5.50;;;5.10;;
47912;SDS011;33676;51.006;17.180;2023-05-07T02:08:38;5.20;;;4.80;;
47912;SDS011;33676;51.006;17.180;2023-05-07T02:11:07;6.20;;;5.70;;
47912;SDS011;33676;51.006;17.180;2023-05-07T02:13:36;4.90;;;4.60;;
47912;SDS011;33676;51.006;17.180;2023-05-07T02:16:04;5.50;;;5.10;;
47912;SDS011;33676;51.006;17.180;2023-05-07T02:18:33;5.80;;;5.10;;
47912;SDS011;33676;51.006;17.180;2023-05-07T02:21:03;5.90;;;5.30;;
47912;SDS011;33676;51.006;17.180;2023-05-07T02:23:55;4.70;;;4.30;;
47912;SDS011;33676;51.006;17.180;2023-05-07T02:26:24;4.80;;;4.40;;
47912;SDS011;33676;51.006;17.180;2023-05-07T02:28:53;5.40;;;5.00;;
47912;SDS011;33676;51.006;17.180;2023-05-07T02:31:24;5.00;;;4.50;;
47912;SDS011;33676;51.006;17.180;2023-05-07T02:33:52;6.10;;;5.10;;
47912;SDS011;33676;51.006;17.180;2023-05-07T02:36:21;7.10;;;5.80;;
47912;SDS011;33676;51.006;17.180;2023-05-07T02:38:49;6.10;;;5.20;;
47912;SDS011;33676;51.006;17.180;2023-05-07T02:55:36;4.70;;;4.20;;
47912;SDS011;33676;51.006;17.180;2023-05-07T02:58:05;6.40;;;5.80;;
47912;SDS011;33676;51.006;17.180;2023-05-07T03:00:33;8.40;;;4.80;;
47912;SDS011;33676;51.006;17.180;2023-05-07T03:03:02;4.70;;;4.00;;
47912;SDS011;33676;51.006;17.180;2023-05-07T03:05:30;6.10;;;5.50;;
47912;SDS011;33676;51.006;17.180;2023-05-07T03:08:04;6.10;;;5.30;;
47912;SDS011;33676;51.006;17.180;2023-05-07T03:10:32;5.10;;;4.70;;
47912;SDS011;33676;51.006;17.180;2023-05-07T03:13:01;5.60;;;5.10;;
47912;SDS011;33676;51.006;17.180;2023-05-07T03:15:30;5.50;;;5.10;;
47912;SDS011;33676;51.006;17.180;2023-05-07T03:17:58;6.40;;;5.60;;
47912;SDS011;33676;51.006;17.180;2023-05-07T03:20:27;5.90;;;5.40;;
47912;SDS011;33676;51.006;17.180;2023-05-07T03:22:55;6.60;;;5.70;;
47912;SDS011;33676;51.006;17.180;2023-05-07T03:25:24;4.80;;;4.40;;
47912;SDS011;33676;51.006;17.180;2023-05-07T03:27:52;5.40;;;5.00;;
47912;SDS011;33676;51.006;17.180;2023-05-07T03:30:21;6.60;;;5.40;;
47912;SDS011;33676;51.006;17.180;2023-05-07T03:32:55;7.20;;;5.30;;
47912;SDS011;33676;51.006;17.180;2023-05-07T03:35:24;5.40;;;5.00;;
47912;SDS011;33676;51.006;17.180;2023-05-07T03:37:57;5.70;;;5.20;;
47912;SDS011;33676;51.006;17.180;2023-05-07T03:40:49;4.70;;;4.30;;
47912;SDS011;33676;51.006;17.180;2023-05-07T03:43:18;4.50;;;4.20;;
47912;SDS011;33676;51.006;17.180;2023-05-07T03:45:46;4.70;;;4.30;;
47912;SDS011;33676;51.006;17.180;2023-05-07T03:48:27;6.10;;;4.70;;
47912;SDS011;33676;51.006;17.180;2023-05-07T03:50:57;5.00;;;4.50;;
47912;SDS011;33676;51.006;17.180;2023-05-07T03:53:26;4.10;;;3.80;;
47912;SDS011;33676;51.006;17.180;2023-05-07T03:56:24;5.80;;;4.60;;
47912;SDS011;33676;51.006;17.180;2023-05-07T03:58:53;4.20;;;3.90;;
47912;SDS011;33676;51.006;17.180;2023-05-07T04:01:24;3.80;;;3.50;;
47912;SDS011;33676;51.006;17.180;2023-05-07T04:03:52;11.00;;;5.00;;
47912;SDS011;33676;51.006;17.180;2023-05-07T04:06:21;4.60;;;4.20;;
47912;SDS011;33676;51.006;17.180;2023-05-07T04:08:50;5.60;;;5.10;;
47912;SDS011;33676;51.006;17.180;2023-05-07T04:11:18;4.50;;;4.20;;
47912;SDS011;33676;51.006;17.180;2023-05-07T04:13:46;5.70;;;4.60;;
47912;SDS011;33676;51.006;17.180;2023-05-07T04:16:15;9.10;;;4.20;;
47912;SDS011;33676;51.006;17.180;2023-05-07T04:18:43;3.90;;;3.60;;
47912;SDS011;33676;51.006;17.180;2023-05-07T04:21:36;4.30;;;4.00;;
47912;SDS011;33676;51.006;17.180;2023-05-07T04:24:05;4.40;;;4.10;;
47912;SDS011;33676;51.006;17.180;2023-05-07T04:26:33;4.70;;;4.30;;
47912;SDS011;33676;51.006;17.180;2023-05-07T04:29:02;3.80;;;3.40;;
47912;SDS011;33676;51.006;17.180;2023-05-07T04:31:30;4.80;;;4.40;;
47912;SDS011;33676;51.006;17.180;2023-05-07T04:33:58;4.40;;;4.10;;
47912;SDS011;33676;51.006;17.180;2023-05-07T04:36:27;8.80;;;3.90;;
47912;SDS011;33676;51.006;17.180;2023-05-07T04:38:55;6.10;;;3.90;;
47912;SDS011;33676;51.006;17.180;2023-05-07T04:41:24;4.50;;;4.10;;
47912;SDS011;33676;51.006;17.180;2023-05-07T04:43:57;4.10;;;3.70;;
47912;SDS011;33676;51.006;17.180;2023-05-07T04:46:50;3.60;;;3.30;;
47912;SDS011;33676;51.006;17.180;2023-05-07T04:49:21;3.70;;;3.40;;
47912;SDS011;33676;51.006;17.180;2023-05-07T04:51:50;2.90;;;2.70;;
47912;SDS011;33676;51.006;17.180;2023-05-07T04:54:19;3.90;;;3.40;;
47912;SDS011;33676;51.006;17.180;2023-05-07T04:56:48;3.20;;;2.90;;
47912;SDS011;33676;51.006;17.180;2023-05-07T04:59:17;3.90;;;3.50;;
47912;SDS011;33676;51.006;17.180;2023-05-07T05:01:45;3.40;;;3.20;;
47912;SDS011;33676;51.006;17.180;2023-05-07T05:04:14;3.60;;;3.10;;
47912;SDS011;33676;51.006;17.180;2023-05-07T05:06:58;3.10;;;2.90;;
47912;SDS011;33676;51.006;17.180;2023-05-07T05:09:26;4.30;;;2.50;;
47912;SDS011;33676;51.006;17.180;2023-05-07T05:11:55;3.40;;;3.20;;
47912;SDS011;33676;51.006;17.180;2023-05-07T05:14:23;3.00;;;2.80;;
47912;SDS011;33676;51.006;17.180;2023-05-07T05:17:15;2.70;;;2.50;;
47912;SDS011;33676;51.006;17.180;2023-05-07T05:19:44;3.30;;;2.80;;
47912;SDS011;33676;51.006;17.180;2023-05-07T05:22:12;3.00;;;2.80;;
47912;SDS011;33676;51.006;17.180;2023-05-07T05:24:40;3.10;;;2.80;;
47912;SDS011;33676;51.006;17.180;2023-05-07T05:27:09;2.60;;;2.50;;
47912;SDS011;33676;51.006;17.180;2023-05-07T05:29:37;3.60;;;2.60;;
47912;SDS011;33676;51.006;17.180;2023-05-07T05:32:06;2.70;;;2.50;;
47912;SDS011;33676;51.006;17.180;2023-05-07T05:34:36;3.10;;;2.90;;
47912;SDS011;33676;51.006;17.180;2023-05-07T05:37:04;3.00;;;2.80;;
47912;SDS011;33676;51.006;17.180;2023-05-07T05:39:33;3.20;;;3.00;;
47912;SDS011;33676;51.006;17.180;2023-05-07T05:42:01;3.20;;;3.00;;
47912;SDS011;33676;51.006;17.180;2023-05-07T05:44:56;3.90;;;3.60;;
47912;SDS011;33676;51.006;17.180;2023-05-07T05:47:24;3.40;;;3.20;;
47912;SDS011;33676;51.006;17.180;2023-05-07T05:49:53;6.50;;;2.90;;
47912;SDS011;33676;51.006;17.180;2023-05-07T05:52:21;3.00;;;2.90;;
47912;SDS011;33676;51.006;17.180;2023-05-07T05:54:51;2.90;;;2.70;;
47912;SDS011;33676;51.006;17.180;2023-05-07T05:57:20;2.90;;;2.70;;
47912;SDS011;33676;51.006;17.180;2023-05-07T06:00:06;3.00;;;2.80;;
47912;SDS011;33676;51.006;17.180;2023-05-07T06:03:02;3.30;;;3.00;;
47912;SDS011;33676;51.006;17.180;2023-05-07T06:05:31;2.30;;;2.20;;
47912;SDS011;33676;51.006;17.180;2023-05-07T06:08:05;3.00;;;2.80;;
47912;SDS011;33676;51.006;17.180;2023-05-07T06:10:36;3.40;;;3.10;;
47912;SDS011;33676;51.006;17.180;2023-05-07T06:13:05;3.80;;;3.20;;
47912;SDS011;33676;51.006;17.180;2023-05-07T06:15:34;3.30;;;3.00;;
47912;SDS011;33676;51.006;17.180;2023-05-07T06:18:02;2.60;;;2.50;;
47912;SDS011;33676;51.006;17.180;2023-05-07T06:20:56;3.40;;;3.20;;
47912;SDS011;33676;51.006;17.180;2023-05-07T06:23:25;3.30;;;3.10;;
47912;SDS011;33676;51.006;17.180;2023-05-07T06:25:53;5.30;;;3.40;;
47912;SDS011;33676;51.006;17.180;2023-05-07T06:28:22;3.10;;;2.80;;
47912;SDS011;33676;51.006;17.180;2023-05-07T06:30:51;3.30;;;3.10;;
47912;SDS011;33676;51.006;17.180;2023-05-07T06:33:19;3.10;;;2.80;;
47912;SDS011;33676;51.006;17.180;2023-05-07T06:35:48;3.40;;;3.20;;
47912;SDS011;33676;51.006;17.180;2023-05-07T06:38:16;3.20;;;2.90;;
47912;SDS011;33676;51.006;17.180;2023-05-07T06:40:48;3.50;;;3.20;;
47912;SDS011;33676;51.006;17.180;2023-05-07T06:43:17;2.80;;;2.60;;
47912;SDS011;33676;51.006;17.180;2023-05-07T06:45:46;3.40;;;3.10;;
47912;SDS011;33676;51.006;17.180;2023-05-07T06:48:14;3.40;;;3.20;;
47912;SDS011;33676;51.006;17.180;2023-05-07T06:50:43;3.60;;;3.10;;
47912;SDS011;33676;51.006;17.180;2023-05-07T06:53:11;3.50;;;3.20;;
47912;SDS011;33676;51.006;17.180;2023-05-07T06:55:39;3.60;;;3.40;;
47912;SDS011;33676;51.006;17.180;2023-05-07T06:58:09;3.50;;;3.30;;
47912;SDS011;33676;51.006;17.180;2023-05-07T07:00:38;3.30;;;2.80;;
47912;SDS011;33676;51.006;17.180;2023-05-07T07:03:06;4.00;;;3.80;;
47912;SDS011;33676;51.006;17.180;2023-05-07T07:05:35;3.80;;;3.60;;
47912;SDS011;33676;51.006;17.180;2023-05-07T07:08:04;3.80;;;3.40;;
47912;SDS011;33676;51.006;17.180;2023-05-07T07:10:33;2.80;;;2.60;;
47912;SDS011;33676;51.006;17.180;2023-05-07T07:13:02;3.60;;;3.40;;
47912;SDS011;33676;51.006;17.180;2023-05-07T07:15:30;3.60;;;3.40;;
47912;SDS011;33676;51.006;17.180;2023-05-07T07:17:59;5.00;;;3.20;;
47912;SDS011;33676;51.006;17.180;2023-05-07T07:20:27;2.80;;;2.60;;
47912;SDS011;33676;51.006;17.180;2023-05-07T07:22:56;2.80;;;2.60;;
47912;SDS011;33676;51.006;17.180;2023-05-07T07:25:24;3.60;;;2.60;;
47912;SDS011;33676;51.006;17.180;2023-05-07T07:27:52;2.60;;;2.40;;
47912;SDS011;33676;51.006;17.180;2023-05-07T07:30:21;2.90;;;2.70;;
47912;SDS011;33676;51.006;17.180;2023-05-07T07:32:49;2.00;;;1.90;;
47912;SDS011;33676;51.006;17.180;2023-05-07T07:35:18;1.60;;;1.50;;
47912;SDS011;33676;51.006;17.180;2023-05-07T07:37:47;2.20;;;2.10;;
47912;SDS011;33676;51.006;17.180;2023-05-07T07:40:18;2.00;;;1.90;;
47912;SDS011;33676;51.006;17.180;2023-05-07T07:42:46;2.50;;;2.20;;
47912;SDS011;33676;51.006;17.180;2023-05-07T07:45:15;3.00;;;2.80;;
47912;SDS011;33676;51.006;17.180;2023-05-07T07:47:43;2.30;;;2.20;;
47912;SDS011;33676;51.006;17.180;2023-05-07T07:50:12;2.10;;;1.90;;
47912;SDS011;33676;51.006;17.180;2023-05-07T07:52:49;2.30;;;2.20;;
47912;SDS011;33676;51.006;17.180;2023-05-07T07:55:20;3.10;;;2.90;;
47912;SDS011;33676;51.006;17.180;2023-05-07T07:57:51;2.50;;;2.40;;
47912;SDS011;33676;51.006;17.180;2023-05-07T08:00:19;3.00;;;2.80;;
47912;SDS011;33676;51.006;17.180;2023-05-07T08:02:48;3.10;;;2.90;;
47912;SDS011;33676;51.006;17.180;2023-05-07T08:05:17;3.10;;;2.90;;
47912;SDS011;33676;51.006;17.180;2023-05-07T08:07:45;3.90;;;3.50;;
47912;SDS011;33676;51.006;17.180;2023-05-07T08:10:14;4.60;;;4.20;;
47912;SDS011;33676;51.006;17.180;2023-05-07T08:12:49;3.90;;;3.70;;
47912;SDS011;33676;51.006;17.180;2023-05-07T08:15:18;3.70;;;3.50;;
47912;SDS011;33676;51.006;17.180;2023-05-07T08:17:47;3.60;;;3.20;;
47912;SDS011;33676;51.006;17.180;2023-05-07T08:20:15;3.70;;;3.40;;
47912;SDS011;33676;51.006;17.180;2023-05-07T08:22:44;3.20;;;3.00;;
47912;SDS011;33676;51.006;17.180;2023-05-07T08:25:13;4.10;;;3.80;;
47912;SDS011;33676;51.006;17.180;2023-05-07T08:27:41;3.40;;;3.20;;
47912;SDS011;33676;51.006;17.180;2023-05-07T08:30:10;3.30;;;3.10;;
47912;SDS011;33676;51.006;17.180;2023-05-07T08:32:42;3.30;;;3.10;;
47912;SDS011;33676;51.006;17.180;2023-05-07T08:35:11;3.90;;;3.10;;
47912;SDS011;33676;51.006;17.180;2023-05-07T08:37:40;3.10;;;2.90;;
47912;SDS011;33676;51.006;17.180;2023-05-07T08:40:11;3.00;;;2.80;;
47912;SDS011;33676;51.006;17.180;2023-05-07T08:46:04;4.00;;;3.70;;
47912;SDS011;33676;51.006;17.180;2023-05-07T08:48:37;7.60;;;5.50;;
47912;SDS011;33676;51.006;17.180;2023-05-07T08:51:05;3.90;;;3.40;;
47912;SDS011;33676;51.006;17.180;2023-05-07T08:53:34;4.50;;;3.60;;
47912;SDS011;33676;51.006;17.180;2023-05-07T08:56:04;7.80;;;4.20;;
47912;SDS011;33676;51.006;17.180;2023-05-07T08:58:35;4.00;;;3.60;;
47912;SDS011;33676;51.006;17.180;2023-05-07T09:01:08;4.60;;;4.20;;
47912;SDS011;33676;51.006;17.180;2023-05-07T09:03:46;3.70;;;3.40;;
47912;SDS011;33676;51.006;17.180;2023-05-07T09:06:16;6.10;;;5.60;;
47912;SDS011;33676;51.006;17.180;2023-05-07T09:08:53;4.70;;;4.40;;
47912;SDS011;33676;51.006;17.180;2023-05-07T09:11:29;4.60;;;4.10;;
47912;SDS011;33676;51.006;17.180;2023-05-07T09:13:58;4.40;;;4.10;;
47912;SDS011;33676;51.006;17.180;2023-05-07T09:16:30;4.80;;;4.40;;
47912;SDS011;33676;51.006;17.180;2023-05-07T09:19:02;4.90;;;4.50;;
47912;SDS011;33676;51.006;17.180;2023-05-07T09:21:35;3.40;;;3.10;;
47912;SDS011;33676;51.006;17.180;2023-05-07T09:24:05;3.50;;;3.30;;
47912;SDS011;33676;51.006;17.180;2023-05-07T09:26:34;3.30;;;3.10;;
47912;SDS011;33676;51.006;17.180;2023-05-07T09:38:19;3.40;;;3.20;;
47912;SDS011;33676;51.006;17.180;2023-05-07T09:41:02;3.80;;;3.50;;
47912;SDS011;33676;51.006;17.180;2023-05-07T09:43:32;3.40;;;3.20;;
47912;SDS011;33676;51.006;17.180;2023-05-07T09:46:14;4.10;;;3.70;;
47912;SDS011;33676;51.006;17.180;2023-05-07T09:48:43;3.40;;;3.20;;
47912;SDS011;33676;51.006;17.180;2023-05-07T09:51:21;3.60;;;3.40;;
47912;SDS011;33676;51.006;17.180;2023-05-07T09:53:58;3.50;;;3.20;;
47912;SDS011;33676;51.006;17.180;2023-05-07T09:56:31;4.00;;;2.90;;
47912;SDS011;33676;51.006;17.180;2023-05-07T09:59:00;5.40;;;3.00;;
47912;SDS011;33676;51.006;17.180;2023-05-07T10:01:31;3.20;;;3.00;;
47912;SDS011;33676;51.006;17.180;2023-05-07T10:04:07;3.40;;;3.20;;
47912;SDS011;33676;51.006;17.180;2023-05-07T10:06:37;3.50;;;3.20;;
47912;SDS011;33676;51.006;17.180;2023-05-07T10:09:06;3.70;;;3.40;;
47912;SDS011;33676;51.006;17.180;2023-05-07T10:11:35;3.50;;;3.30;;
47912;SDS011;33676;51.006;17.180;2023-05-07T10:14:04;2.90;;;2.70;;
47912;SDS011;33676;51.006;17.180;2023-05-07T10:16:36;3.10;;;2.90;;
47912;SDS011;33676;51.006;17.180;2023-05-07T10:19:07;3.60;;;3.10;;
47912;SDS011;33676;51.006;17.180;2023-05-07T10:24:33;3.30;;;3.10;;
47912;SDS011;33676;51.006;17.180;2023-05-07T10:27:08;2.60;;;2.50;;
47912;SDS011;33676;51.006;17.180;2023-05-07T10:32:42;2.00;;;1.90;;
47912;SDS011;33676;51.006;17.180;2023-05-07T10:35:29;2.10;;;2.00;;
47912;SDS011;33676;51.006;17.180;2023-05-07T10:38:29;1.70;;;1.60;;
47912;SDS011;33676;51.006;17.180;2023-05-07T10:41:00;2.20;;;2.10;;
47912;SDS011;33676;51.006;17.180;2023-05-07T10:43:43;2.50;;;2.20;;
47912;SDS011;33676;51.006;17.180;2023-05-07T10:46:20;3.70;;;1.90;;
47912;SDS011;33676;51.006;17.180;2023-05-07T10:54:38;3.20;;;3.00;;
47912;SDS011;33676;51.006;17.180;2023-05-07T10:57:34;3.00;;;2.80;;
47912;SDS011;33676;51.006;17.180;2023-05-07T11:03:07;2.50;;;2.30;;
47912;SDS011;33676;51.006;17.180;2023-05-07T11:05:38;3.20;;;3.00;;
47912;SDS011;33676;51.006;17.180;2023-05-07T11:08:07;2.70;;;2.50;;
47912;SDS011;33676;51.006;17.180;2023-05-07T11:10:56;4.80;;;2.90;;
47912;SDS011;33676;51.006;17.180;2023-05-07T11:13:44;3.20;;;2.70;;
47912;SDS011;33676;51.006;17.180;2023-05-07T11:16:21;3.30;;;3.10;;
47912;SDS011;33676;51.006;17.180;2023-05-07T11:18:56;3.60;;;3.00;;
47912;SDS011;33676;51.006;17.180;2023-05-07T11:21:37;3.10;;;2.90;;
47912;SDS011;33676;51.006;17.180;2023-05-07T11:24:09;3.90;;;3.10;;
47912;SDS011;33676;51.006;17.180;2023-05-07T11:26:47;3.50;;;3.30;;
47912;SDS011;33676;51.006;17.180;2023-05-07T11:29:20;4.00;;;3.60;;
47912;SDS011;33676;51.006;17.180;2023-05-07T11:31:51;3.00;;;2.70;;
47912;SDS011;33676;51.006;17.180;2023-05-07T11:34:25;3.00;;;2.80;;
47912;SDS011;33676;51.006;17.180;2023-05-07T11:36:55;2.60;;;2.40;;
47912;SDS011;33676;51.006;17.180;2023-05-07T11:39:31;2.90;;;2.70;;
47912;SDS011;33676;51.006;17.180;2023-05-07T11:42:04;2.80;;;2.70;;
47912;SDS011;33676;51.006;17.180;2023-05-07T11:44:43;2.50;;;2.40;;
47912;SDS011;33676;51.006;17.180;2023-05-07T11:47:18;2.70;;;2.60;;
47912;SDS011;33676;51.006;17.180;2023-05-07T11:49:48;2.80;;;2.60;;
47912;SDS011;33676;51.006;17.180;2023-05-07T11:52:19;2.50;;;2.40;;
47912;SDS011;33676;51.006;17.180;2023-05-07T11:54:55;2.80;;;2.70;;
47912;SDS011;33676;51.006;17.180;2023-05-07T11:57:25;3.40;;;2.40;;
47912;SDS011;33676;51.006;17.180;2023-05-07T11:59:59;4.80;;;2.80;;
47912;SDS011;33676;51.006;17.180;2023-05-07T12:02:30;2.60;;;2.50;;
47912;SDS011;33676;51.006;17.180;2023-05-07T12:05:00;2.80;;;2.70;;
47912;SDS011;33676;51.006;17.180;2023-05-07T12:07:28;2.60;;;2.40;;
47912;SDS011;33676;51.006;17.180;2023-05-07T12:09:57;2.80;;;2.50;;
47912;SDS011;33676;51.006;17.180;2023-05-07T12:12:25;3.10;;;2.80;;
47912;SDS011;33676;51.006;17.180;2023-05-07T12:14:55;3.00;;;2.80;;
47912;SDS011;33676;51.006;17.180;2023-05-07T12:17:23;3.40;;;3.10;;
47912;SDS011;33676;51.006;17.180;2023-05-07T12:19:52;3.10;;;2.70;;
47912;SDS011;33676;51.006;17.180;2023-05-07T12:22:21;5.00;;;3.20;;
47912;SDS011;33676;51.006;17.180;2023-05-07T12:24:56;2.40;;;2.20;;
47912;SDS011;33676;51.006;17.180;2023-05-07T12:27:26;3.10;;;2.90;;
47912;SDS011;33676;51.006;17.180;2023-05-07T12:29:54;3.80;;;3.50;;
47912;SDS011;33676;51.006;17.180;2023-05-07T12:32:25;3.70;;;3.40;;
47912;SDS011;33676;51.006;17.180;2023-05-07T12:34:54;3.50;;;3.20;;
47912;SDS011;33676;51.006;17.180;2023-05-07T12:37:25;4.50;;;4.10;;
47912;SDS011;33676;51.006;17.180;2023-05-07T12:40:07;4.50;;;3.40;;
47912;SDS011;33676;51.006;17.180;2023-05-07T12:42:39;3.00;;;2.80;;
47912;SDS011;33676;51.006;17.180;2023-05-07T12:45:10;2.80;;;2.70;;
47912;SDS011;33676;51.006;17.180;2023-05-07T12:47:45;3.40;;;3.20;;
47912;SDS011;33676;51.006;17.180;2023-05-07T12:50:15;3.30;;;3.10;;
47912;SDS011;33676;51.006;17.180;2023-05-07T12:52:45;3.60;;;2.90;;
47912;SDS011;33676;51.006;17.180;2023-05-07T12:55:16;2.90;;;2.70;;
47912;SDS011;33676;51.006;17.180;2023-05-07T12:57:49;3.60;;;3.30;;
47912;SDS011;33676;51.006;17.180;2023-05-07T13:00:36;3.80;;;3.50;;
47912;SDS011;33676;51.006;17.180;2023-05-07T13:03:06;4.50;;;3.30;;
47912;SDS011;33676;51.006;17.180;2023-05-07T13:05:34;2.90;;;2.70;;
47912;SDS011;33676;51.006;17.180;2023-05-07T13:08:03;8.20;;;3.80;;
47912;SDS011;33676;51.006;17.180;2023-05-07T13:10:32;4.10;;;3.80;;
47912;SDS011;33676;51.006;17.180;2023-05-07T13:13:03;5.40;;;4.00;;
47912;SDS011;33676;51.006;17.180;2023-05-07T13:15:31;3.60;;;3.40;;
47912;SDS011;33676;51.006;17.180;2023-05-07T13:18:00;3.70;;;3.40;;
47912;SDS011;33676;51.006;17.180;2023-05-07T13:20:29;3.90;;;3.60;;
47912;SDS011;33676;51.006;17.180;2023-05-07T13:26:24;4.10;;;3.70;;
47912;SDS011;33676;51.006;17.180;2023-05-07T13:28:54;3.60;;;3.30;;
47912;SDS011;33676;51.006;17.180;2023-05-07T13:31:23;3.40;;;3.20;;
47912;SDS011;33676;51.006;17.180;2023-05-07T13:33:52;3.40;;;3.20;;
47912;SDS011;33676;51.006;17.180;2023-05-07T13:36:21;4.70;;;3.70;;
47912;SDS011;33676;51.006;17.180;2023-05-07T13:38:50;5.40;;;3.50;;
47912;SDS011;33676;51.006;17.180;2023-05-07T13:41:20;4.00;;;3.60;;
47912;SDS011;33676;51.006;17.180;2023-05-07T13:43:48;3.80;;;3.50;;
47912;SDS011;33676;51.006;17.180;2023-05-07T13:46:17;3.80;;;3.40;;
47912;SDS011;33676;51.006;17.180;2023-05-07T13:49:04;2.90;;;2.70;;
47912;SDS011;33676;51.006;17.180;2023-05-07T13:51:33;9.10;;;4.00;;
47912;SDS011;33676;51.006;17.180;2023-05-07T13:54:01;4.10;;;3.50;;
47912;SDS011;33676;51.006;17.180;2023-05-07T13:56:30;3.80;;;3.50;;
47912;SDS011;33676;51.006;17.180;2023-05-07T13:59:00;11.20;;;3.60;;
47912;SDS011;33676;51.006;17.180;2023-05-07T14:01:28;3.40;;;3.20;;
47912;SDS011;33676;51.006;17.180;2023-05-07T14:03:57;3.70;;;3.40;;
47912;SDS011;33676;51.006;17.180;2023-05-07T14:06:27;4.10;;;3.60;;
47912;SDS011;33676;51.006;17.180;2023-05-07T14:08:56;3.30;;;2.80;;
47912;SDS011;33676;51.006;17.180;2023-05-07T14:14:56;3.20;;;3.00;;
47912;SDS011;33676;51.006;17.180;2023-05-07T14:20:28;3.20;;;2.90;;
47912;SDS011;33676;51.006;17.180;2023-05-07T14:22:59;3.10;;;3.00;;
47912;SDS011;33676;51.006;17.180;2023-05-07T14:25:27;3.50;;;3.30;;
47912;SDS011;33676;51.006;17.180;2023-05-07T14:27:55;2.60;;;2.40;;
47912;SDS011;33676;51.006;17.180;2023-05-07T14:30:24;3.20;;;3.00;;
47912;SDS011;33676;51.006;17.180;2023-05-07T14:32:52;2.70;;;2.50;;
47912;SDS011;33676;51.006;17.180;2023-05-07T14:35:21;12.40;;;4.40;;
47912;SDS011;33676;51.006;17.180;2023-05-07T14:37:50;2.50;;;2.30;;
47912;SDS011;33676;51.006;17.180;2023-05-07T14:40:18;3.70;;;3.40;;
47912;SDS011;33676;51.006;17.180;2023-05-07T14:42:47;3.20;;;3.00;;
47912;SDS011;33676;51.006;17.180;2023-05-07T14:45:15;3.60;;;3.00;;
47912;SDS011;33676;51.006;17.180;2023-05-07T14:47:43;3.30;;;3.00;;
47912;SDS011;33676;51.006;17.180;2023-05-07T14:50:12;3.20;;;2.80;;
47912;SDS011;33676;51.006;17.180;2023-05-07T14:52:40;4.50;;;3.70;;
47912;SDS011;33676;51.006;17.180;2023-05-07T14:55:08;5.00;;;3.90;;
47912;SDS011;33676;51.006;17.180;2023-05-07T14:57:37;4.70;;;4.30;;
47912;SDS011;33676;51.006;17.180;2023-05-07T15:00:06;3.90;;;3.70;;
47912;SDS011;33676;51.006;17.180;2023-05-07T15:02:36;4.20;;;3.80;;
47912;SDS011;33676;51.006;17.180;2023-05-07T15:05:05;3.30;;;3.10;;
47912;SDS011;33676;51.006;17.180;2023-05-07T15:07:34;3.90;;;3.60;;
47912;SDS011;33676;51.006;17.180;2023-05-07T15:10:03;6.40;;;4.20;;
47912;SDS011;33676;51.006;17.180;2023-05-07T15:12:31;3.70;;;3.40;;
47912;SDS011;33676;51.006;17.180;2023-05-07T15:15:00;3.80;;;3.60;;
47912;SDS011;33676;51.006;17.180;2023-05-07T15:17:28;4.10;;;3.20;;
47912;SDS011;33676;51.006;17.180;2023-05-07T15:19:57;3.40;;;3.10;;
47912;SDS011;33676;51.006;17.180;2023-05-07T15:22:25;3.30;;;3.10;;
47912;SDS011;33676;51.006;17.180;2023-05-07T15:24:54;5.40;;;4.00;;
47912;SDS011;33676;51.006;17.180;2023-05-07T15:27:23;3.60;;;3.40;;
47912;SDS011;33676;51.006;17.180;2023-05-07T15:29:51;4.20;;;4.00;;
47912;SDS011;33676;51.006;17.180;2023-05-07T15:32:20;7.60;;;6.90;;
47912;SDS011;33676;51.006;17.180;2023-05-07T15:34:48;6.70;;;6.20;;
47912;SDS011;33676;51.006;17.180;2023-05-07T15:37:16;5.90;;;5.40;;
47912;SDS011;33676;51.006;17.180;2023-05-07T15:39:45;3.60;;;3.30;;
47912;SDS011;33676;51.006;17.180;2023-05-07T15:42:13;4.60;;;4.00;;
47912;SDS011;33676;51.006;17.180;2023-05-07T15:44:42;4.60;;;4.30;;
47912;SDS011;33676;51.006;17.180;2023-05-07T15:47:10;6.90;;;3.70;;
47912;SDS011;33676;51.006;17.180;2023-05-07T15:49:39;4.70;;;4.10;;